Yengema Airport

Jump to: basic info | weather | comments

Related pages: nearby airports | nearby navaids | notams | map

Basic information (top)

Codes: WYE GFYE
Location: lon 8.610470, lat -11.045400, elev 1,300 ft / 396 m msl
Status: medium_airport
Scheduled airline service: yes
Links: Wikipedia Mobile

Weather (top)

Current conditions for Lungi International Airport 128nm (236km) W (rec'd 2014/08/22 09:00Z):

GFLL 220900Z 06004KT 8000 RA BKN090 FEW027 24/23 Q1014 RMK CN-NE

Airport forecast for Lungi International Airport 128nm (236km) W (rec'd 2014/08/22 06:54Z):

TAF TAF GFLL 220400Z 2206/2312 12005KT 7000 RA BKN010 
      BECMG 2209/2211 6000 RA/TSRA BKN010 FEW027CB PROB30 
     FM221700 26008KT 8000-RA/TSRA BKN010 FEW027CB

Latest comments (top)

No comments yet for Yengema Airport

More... (top)

See also NOTAMs and nearby airports and navaids, or visit the Yengema Airport page at the main OurAirports website..